createdAt,value
2017-11-26T00:00:42.318Z,4.28
2017-11-26T00:01:42.199Z,4.2
2017-11-26T00:02:42.191Z,4.34
2017-11-26T00:03:42.206Z,4.4
2017-11-26T00:04:42.174Z,4.36
2017-11-26T00:05:41.905Z,4.38
2017-11-26T00:06:41.997Z,4.42
2017-11-26T00:07:42.147Z,4.4
2017-11-26T00:08:42.144Z,4.52
2017-11-26T00:09:42.126Z,4.34
2017-11-26T00:10:41.860Z,4.4
2017-11-26T00:11:42.110Z,4.42
2017-11-26T00:12:42.099Z,4.4
2017-11-26T00:13:42.099Z,4.4
2017-11-26T00:14:41.819Z,4.39
2017-11-26T00:15:42.071Z,4.38
2017-11-26T00:16:42.062Z,4.38
2017-11-26T00:17:42.054Z,4.42
2017-11-26T00:18:42.040Z,4.28
2017-11-26T00:19:41.514Z,4.22
2017-11-26T00:20:41.772Z,4.21
2017-11-26T00:21:42.117Z,4.22
2017-11-26T00:22:42.007Z,4.2
2017-11-26T00:23:41.996Z,4.25
2017-11-26T00:24:41.991Z,4.36
2017-11-26T00:25:41.717Z,4.34
2017-11-26T00:26:41.709Z,4.36
2017-11-26T00:27:41.702Z,4.53
2017-11-26T00:28:41.948Z,4.49
2017-11-26T00:29:41.940Z,4.49
2017-11-26T00:30:41.670Z,4.57
2017-11-26T00:31:41.927Z,4.53
2017-11-26T00:32:41.916Z,4.56
2017-11-26T00:33:42.012Z,4.57
2017-11-26T00:34:41.374Z,4.57
2017-11-26T00:35:41.622Z,4.53
2017-11-26T00:36:41.614Z,4.52
2017-11-26T00:37:41.862Z,4.6
2017-11-26T00:38:41.631Z,4.46
2017-11-26T00:39:41.846Z,4.48
2017-11-26T00:40:41.838Z,4.42
2017-11-26T00:41:41.827Z,4.42
2017-11-26T00:42:41.812Z,4.34
2017-11-26T00:43:41.806Z,4.4
2017-11-26T00:44:41.548Z,4.38
2017-11-26T00:45:41.550Z,4.39
2017-11-26T00:46:41.978Z,4.39
2017-11-26T00:47:41.773Z,4.4
2017-11-26T00:48:41.500Z,4.39
2017-11-26T00:49:41.766Z,4.4
2017-11-26T00:50:41.772Z,4.42
2017-11-26T00:51:41.740Z,4.49
2017-11-26T00:52:41.716Z,4.43
2017-11-26T00:53:41.821Z,4.4
2017-11-26T00:54:41.444Z,4.48
2017-11-26T00:55:41.534Z,4.45
2017-11-26T00:56:41.690Z,4.57
2017-11-26T00:57:41.513Z,4.49
2017-11-26T00:58:41.404Z,4.49
2017-11-26T00:59:41.655Z,4.6
2017-11-26T01:00:41.647Z,4.53
2017-11-26T01:01:41.638Z,4.58
2017-11-26T01:02:41.372Z,4.58
2017-11-26T01:03:41.626Z,4.5
2017-11-26T01:04:41.633Z,4.56
2017-11-26T01:05:41.702Z,4.45
2017-11-26T01:06:41.597Z,4.46
2017-11-26T01:07:41.697Z,4.57
2017-11-26T01:08:41.574Z,4.53
2017-11-26T01:09:41.562Z,4.53
2017-11-26T01:10:41.565Z,4.58
2017-11-26T01:11:41.548Z,4.45
2017-11-26T01:12:41.274Z,4.64
2017-11-26T01:13:41.544Z,4.58
2017-11-26T01:14:41.522Z,4.57
2017-11-26T01:15:41.503Z,4.57
2017-11-26T01:16:41.241Z,4.56
2017-11-26T01:17:41.500Z,4.52
2017-11-26T01:18:41.319Z,4.52
2017-11-26T01:19:41.469Z,4.56
2017-11-26T01:20:41.461Z,4.6
2017-11-26T01:21:41.471Z,4.58
2017-11-26T01:22:41.443Z,4.66
2017-11-26T01:23:41.272Z,4.6
2017-11-26T01:24:40.904Z,4.58
2017-11-26T01:25:41.512Z,4.57
2017-11-26T01:26:41.428Z,4.61
2017-11-26T01:27:41.407Z,4.57
2017-11-26T01:28:41.487Z,4.53
2017-11-26T01:29:41.375Z,4.53
2017-11-26T01:30:40.847Z,4.52
2017-11-26T01:31:41.199Z,4.36
2017-11-26T01:32:41.101Z,4.43
2017-11-26T01:33:41.076Z,4.38
2017-11-26T01:34:41.329Z,4.38
2017-11-26T01:35:41.324Z,4.32
2017-11-26T01:36:41.311Z,4.36
2017-11-26T01:37:41.326Z,4.39
2017-11-26T01:38:41.049Z,4.4
2017-11-26T01:39:41.023Z,4.42
2017-11-26T01:40:41.295Z,4.38
2017-11-26T01:41:40.753Z,4.34
2017-11-26T01:42:41.094Z,4.42
2017-11-26T01:43:40.987Z,4.34
2017-11-26T01:44:41.235Z,4.34
2017-11-26T01:45:41.325Z,4.22
2017-11-26T01:46:41.217Z,4.36
2017-11-26T01:47:41.211Z,4.34
2017-11-26T01:48:41.195Z,4.4
2017-11-26T01:49:40.929Z,4.39
2017-11-26T01:50:41.020Z,4.4
2017-11-26T01:51:41.169Z,4.39
2017-11-26T01:52:41.174Z,4.43
2017-11-26T01:53:41.152Z,4.25
2017-11-26T01:54:41.138Z,4.25
2017-11-26T01:55:41.175Z,4.24
2017-11-26T01:56:41.125Z,4.25
2017-11-26T01:57:41.220Z,4.22
2017-11-26T01:58:41.228Z,4.2
2017-11-26T01:59:41.100Z,4.1
2017-11-26T02:00:40.826Z,4.04
2017-11-26T02:01:41.083Z,4.02
2017-11-26T02:02:41.166Z,3.99
2017-11-26T02:03:41.056Z,3.91
2017-11-26T02:04:41.050Z,3.85
2017-11-26T02:05:41.039Z,3.81
2017-11-26T02:06:41.035Z,3.78
2017-11-26T02:07:40.770Z,3.76
2017-11-26T02:08:41.008Z,3.67
2017-11-26T02:09:41.001Z,3.64
2017-11-26T02:10:40.991Z,3.66
2017-11-26T02:11:40.990Z,3.59
2017-11-26T02:12:40.971Z,3.58
2017-11-26T02:13:40.803Z,3.66
2017-11-26T02:14:40.705Z,3.64
2017-11-26T02:15:40.685Z,3.59
2017-11-26T02:16:40.671Z,3.61
2017-11-26T02:17:40.664Z,3.61
2017-11-26T02:18:40.912Z,3.63
2017-11-26T02:19:40.957Z,3.78
2017-11-26T02:20:40.653Z,3.82
2017-11-26T02:21:40.632Z,3.81
2017-11-26T02:22:40.876Z,3.76
2017-11-26T02:23:40.621Z,3.86
2017-11-26T02:24:40.701Z,3.86
2017-11-26T02:25:40.586Z,3.78
2017-11-26T02:26:40.852Z,3.81
2017-11-26T02:27:40.829Z,3.85
2017-11-26T02:28:40.824Z,3.78
2017-11-26T02:29:40.809Z,3.58
2017-11-26T02:30:40.550Z,3.66
2017-11-26T02:31:40.816Z,3.7
2017-11-26T02:32:40.528Z,3.64
2017-11-26T02:33:40.777Z,3.58
2017-11-26T02:34:40.771Z,3.59
2017-11-26T02:35:40.494Z,3.64
2017-11-26T02:36:40.745Z,3.78
2017-11-26T02:37:40.730Z,3.78
2017-11-26T02:38:40.460Z,3.74
2017-11-26T02:39:40.719Z,3.89
2017-11-26T02:40:40.827Z,4.02
2017-11-26T02:41:40.455Z,4.07
2017-11-26T02:42:40.701Z,4.02
2017-11-26T02:43:40.423Z,4.06
2017-11-26T02:44:40.675Z,4.09
2017-11-26T02:45:40.720Z,4.14
2017-11-26T02:46:40.650Z,4.22
2017-11-26T02:47:40.636Z,4.21
2017-11-26T02:48:40.374Z,4.21
2017-11-26T02:49:40.364Z,4.31
2017-11-26T02:50:40.816Z,4.43
2017-11-26T02:51:40.345Z,4.36
2017-11-26T02:52:40.599Z,4.42
2017-11-26T02:53:40.327Z,4.45
2017-11-26T02:54:40.324Z,4.53
2017-11-26T02:55:40.300Z,4.5
2017-11-26T02:56:40.293Z,4.6
2017-11-26T02:57:40.283Z,4.5
2017-11-26T02:58:40.531Z,4.46
2017-11-26T02:59:40.372Z,4.5
2017-11-26T03:00:40.252Z,4.53
2017-11-26T03:01:40.503Z,4.49
2017-11-26T03:02:40.503Z,4.48
2017-11-26T03:03:39.966Z,4.56
2017-11-26T03:04:40.480Z,4.48
2017-11-26T03:05:40.205Z,4.56
2017-11-26T03:06:40.301Z,4.57
2017-11-26T03:07:40.444Z,4.58
2017-11-26T03:08:40.462Z,4.56
2017-11-26T03:09:40.434Z,4.61
2017-11-26T03:10:40.414Z,4.57
2017-11-26T03:11:40.414Z,4.67
2017-11-26T03:12:39.895Z,4.63
2017-11-26T03:13:40.129Z,4.63
2017-11-26T03:14:40.384Z,4.61
2017-11-26T03:15:39.851Z,4.66
2017-11-26T03:16:40.461Z,4.66
2017-11-26T03:17:40.094Z,4.66
2017-11-26T03:18:40.084Z,4.67
2017-11-26T03:19:40.327Z,4.67
2017-11-26T03:20:40.326Z,4.7
2017-11-26T03:21:40.059Z,4.75
2017-11-26T03:22:40.050Z,4.75
2017-11-26T03:23:40.290Z,4.66
2017-11-26T03:24:40.025Z,4.71
2017-11-26T03:25:39.855Z,4.76
2017-11-26T03:26:40.263Z,4.7
2017-11-26T03:27:40.001Z,4.74
2017-11-26T03:28:40.347Z,4.67
2017-11-26T03:29:39.978Z,4.79
2017-11-26T03:30:40.239Z,4.71
2017-11-26T03:31:40.060Z,4.68
2017-11-26T03:32:40.207Z,4.7
2017-11-26T03:33:40.202Z,4.68
2017-11-26T03:34:39.670Z,4.71
2017-11-26T03:35:39.921Z,4.63
2017-11-26T03:36:40.268Z,4.78
2017-11-26T03:37:40.184Z,4.66
2017-11-26T03:38:39.896Z,4.71
2017-11-26T03:39:39.880Z,4.75
2017-11-26T03:40:40.147Z,4.67
2017-11-26T03:41:40.125Z,4.71
2017-11-26T03:42:40.226Z,4.74
2017-11-26T03:43:40.131Z,4.67
2017-11-26T03:44:39.834Z,4.67
2017-11-26T03:45:39.825Z,4.71
2017-11-26T03:46:39.816Z,4.64
2017-11-26T03:47:39.806Z,4.7
2017-11-26T03:48:40.057Z,4.7
2017-11-26T03:49:40.042Z,4.74
2017-11-26T03:50:39.780Z,4.76
2017-11-26T03:51:39.779Z,4.79
2017-11-26T03:52:39.758Z,4.83
2017-11-26T03:53:39.746Z,4.78
2017-11-26T03:54:40.004Z,4.78
2017-11-26T03:55:39.729Z,4.7
2017-11-26T03:56:39.723Z,4.67
2017-11-26T03:57:39.972Z,4.6
2017-11-26T03:58:39.972Z,4.64
2017-11-26T03:59:39.696Z,4.61
2017-11-26T04:00:39.952Z,4.56
2017-11-26T04:01:39.674Z,4.63
2017-11-26T04:02:39.925Z,4.58
2017-11-26T04:03:39.652Z,4.46
2017-11-26T04:04:39.906Z,4.52
2017-11-26T04:05:39.894Z,4.52
2017-11-26T04:06:39.892Z,4.45
2017-11-26T04:07:39.614Z,4.48
2017-11-26T04:08:39.611Z,4.49
2017-11-26T04:09:39.598Z,4.36
2017-11-26T04:10:39.849Z,4.4
2017-11-26T04:11:39.842Z,4.48
2017-11-26T04:12:39.836Z,4.38
2017-11-26T04:13:39.821Z,4.38
2017-11-26T04:14:39.293Z,4.3
2017-11-26T04:15:39.806Z,4.32
2017-11-26T04:16:39.534Z,4.21
2017-11-26T04:17:39.523Z,4.18
2017-11-26T04:18:39.794Z,4.22
2017-11-26T04:19:39.764Z,4.2
2017-11-26T04:20:39.494Z,4.21
2017-11-26T04:21:39.491Z,4.18
2017-11-26T04:22:39.843Z,4.2
2017-11-26T04:23:39.724Z,4.2
2017-11-26T04:24:39.712Z,4.25
2017-11-26T04:25:39.707Z,4.28
2017-11-26T04:26:39.696Z,4.21
2017-11-26T04:27:39.691Z,4.25
2017-11-26T04:28:39.419Z,4.12
2017-11-26T04:29:39.665Z,4.12
2017-11-26T04:30:39.141Z,4.06
2017-11-26T04:31:39.653Z,4.02
2017-11-26T04:32:39.642Z,3.92
2017-11-26T04:33:39.571Z,3.89
2017-11-26T04:34:39.626Z,3.91
2017-11-26T04:35:39.610Z,3.77
2017-11-26T04:36:39.601Z,3.81
2017-11-26T04:37:39.335Z,3.78
2017-11-26T04:38:39.583Z,3.86
2017-11-26T04:39:39.317Z,3.89
2017-11-26T04:40:39.564Z,3.74
2017-11-26T04:41:39.552Z,3.84
2017-11-26T04:42:39.025Z,3.78
2017-11-26T04:43:39.536Z,3.67
2017-11-26T04:44:39.269Z,3.67
2017-11-26T04:45:39.517Z,3.59
2017-11-26T04:46:39.511Z,3.5
2017-11-26T04:47:39.495Z,3.58
2017-11-26T04:48:39.230Z,3.41
2017-11-26T04:49:39.481Z,3.49
2017-11-26T04:50:39.469Z,3.41
2017-11-26T04:51:39.461Z,3.53
2017-11-26T04:52:39.449Z,3.58
2017-11-26T04:53:39.443Z,3.55
2017-11-26T04:54:39.447Z,3.55
2017-11-26T04:55:39.429Z,3.52
2017-11-26T04:56:39.422Z,3.52
2017-11-26T04:57:39.149Z,3.59
2017-11-26T04:58:39.404Z,3.61
2017-11-26T04:59:39.411Z,3.64
2017-11-26T05:00:39.213Z,3.64
2017-11-26T05:01:39.366Z,3.74
2017-11-26T05:02:39.358Z,3.63
2017-11-26T05:03:39.085Z,3.68
2017-11-26T05:04:39.345Z,3.73
2017-11-26T05:05:39.069Z,3.71
2017-11-26T05:06:39.434Z,3.86
2017-11-26T05:07:39.045Z,3.89
2017-11-26T05:08:39.037Z,3.91
2017-11-26T05:09:39.289Z,3.84
2017-11-26T05:10:39.027Z,3.89
2017-11-26T05:11:39.272Z,3.77
2017-11-26T05:12:39.000Z,3.84
2017-11-26T05:13:39.000Z,3.89
2017-11-26T05:14:38.989Z,3.84
2017-11-26T05:15:38.976Z,3.82
2017-11-26T05:16:39.219Z,3.86
2017-11-26T05:17:39.051Z,3.95
2017-11-26T05:18:39.301Z,3.94
2017-11-26T05:19:38.670Z,3.94
2017-11-26T05:20:39.283Z,3.91
2017-11-26T05:21:39.178Z,3.91
2017-11-26T05:22:39.168Z,3.95
2017-11-26T05:23:38.634Z,3.92
2017-11-26T05:24:38.901Z,4.06
2017-11-26T05:25:39.132Z,3.78
2017-11-26T05:26:39.126Z,3.73
2017-11-26T05:27:39.113Z,3.81
2017-11-26T05:28:39.206Z,3.82
2017-11-26T05:29:38.835Z,3.73
2017-11-26T05:30:39.091Z,3.74
2017-11-26T05:31:39.080Z,3.77
2017-11-26T05:32:39.070Z,3.73
2017-11-26T05:33:39.056Z,3.81
2017-11-26T05:34:39.153Z,3.76
2017-11-26T05:35:38.524Z,3.7
2017-11-26T05:36:38.768Z,3.76
2017-11-26T05:37:38.784Z,3.77
2017-11-26T05:38:39.009Z,3.7
2017-11-26T05:39:39.012Z,3.82
2017-11-26T05:40:39.008Z,3.77
2017-11-26T05:41:38.984Z,3.88
2017-11-26T05:42:38.714Z,3.86
2017-11-26T05:43:38.964Z,3.76
2017-11-26T05:44:38.959Z,3.78
2017-11-26T05:45:38.949Z,3.86
2017-11-26T05:46:38.939Z,3.86
2017-11-26T05:47:38.663Z,3.89
2017-11-26T05:48:38.926Z,3.85
2017-11-26T05:49:38.387Z,3.88
2017-11-26T05:50:38.636Z,3.94
2017-11-26T05:51:38.880Z,3.92
2017-11-26T05:52:38.631Z,3.92
2017-11-26T05:53:38.604Z,3.86
2017-11-26T05:54:38.597Z,3.78
2017-11-26T05:55:38.846Z,3.78
2017-11-26T05:56:38.847Z,3.92
2017-11-26T05:57:38.846Z,3.84
2017-11-26T05:58:38.657Z,3.91
2017-11-26T05:59:38.543Z,3.88
2017-11-26T06:00:38.795Z,3.92
2017-11-26T06:01:38.528Z,3.88
2017-11-26T06:02:38.519Z,3.92
2017-11-26T06:03:38.761Z,3.94
2017-11-26T06:04:38.754Z,3.99
2017-11-26T06:05:38.745Z,4
2017-11-26T06:06:38.489Z,4
2017-11-26T06:07:38.731Z,4
2017-11-26T06:08:38.459Z,3.99
2017-11-26T06:09:38.466Z,4.03
2017-11-26T06:10:38.705Z,4.04
2017-11-26T06:11:38.429Z,4.07
2017-11-26T06:12:38.781Z,4.12
2017-11-26T06:13:38.522Z,4.18
2017-11-26T06:14:38.411Z,4.1
2017-11-26T06:15:38.391Z,4.13
2017-11-26T06:16:38.643Z,4.16
2017-11-26T06:17:38.375Z,4.14
2017-11-26T06:18:38.627Z,4.1
2017-11-26T06:19:38.621Z,4.13
2017-11-26T06:20:38.345Z,4.21
2017-11-26T06:21:38.598Z,4.13
2017-11-26T06:22:38.587Z,4.21
2017-11-26T06:23:38.319Z,4.14
2017-11-26T06:24:38.562Z,4.24
2017-11-26T06:25:38.554Z,4.2
2017-11-26T06:26:38.551Z,4.27
2017-11-26T06:27:38.281Z,4.22
2017-11-26T06:28:38.266Z,4.2
2017-11-26T06:29:38.521Z,4.28
2017-11-26T06:30:38.257Z,4.21
2017-11-26T06:31:38.505Z,4.25
2017-11-26T06:32:38.585Z,4.18
2017-11-26T06:33:38.495Z,4.18
2017-11-26T06:34:38.483Z,4.1
2017-11-26T06:35:38.455Z,4.07
2017-11-26T06:36:38.474Z,4.06
2017-11-26T06:37:38.198Z,4.03
2017-11-26T06:38:38.273Z,4.06
2017-11-26T06:39:38.420Z,3.99
2017-11-26T06:40:38.458Z,4.06
2017-11-26T06:41:38.409Z,4.06
2017-11-26T06:42:38.171Z,4.04
2017-11-26T06:43:38.227Z,4
2017-11-26T06:44:38.370Z,4.09
2017-11-26T06:45:38.110Z,4.07
2017-11-26T06:46:38.092Z,4.02
2017-11-26T06:47:38.095Z,4.04
2017-11-26T06:48:38.436Z,4.06
2017-11-26T06:49:38.069Z,4.03
2017-11-26T06:50:38.055Z,4.07
2017-11-26T06:51:38.305Z,4.06
2017-11-26T06:52:38.303Z,4.09
2017-11-26T06:53:38.031Z,4.14
2017-11-26T06:54:38.286Z,4.24
2017-11-26T06:55:38.114Z,4.2
2017-11-26T06:56:38.002Z,4.22
2017-11-26T06:57:38.253Z,4.31
2017-11-26T06:58:38.238Z,4.2
2017-11-26T06:59:37.970Z,4.2
2017-11-26T07:00:38.221Z,4.27
2017-11-26T07:01:38.209Z,4.14
2017-11-26T07:02:37.952Z,4.03
2017-11-26T07:03:37.937Z,4.18
2017-11-26T07:04:38.184Z,4.31
2017-11-26T07:05:37.912Z,4.27
2017-11-26T07:06:38.268Z,4.3
2017-11-26T07:07:37.893Z,4.4
2017-11-26T07:08:37.882Z,4.34
2017-11-26T07:09:38.234Z,4.22
2017-11-26T07:10:38.132Z,4.18
2017-11-26T07:11:38.119Z,4.04
2017-11-26T07:12:37.845Z,4.09
2017-11-26T07:13:37.841Z,4.07
2017-11-26T07:14:38.091Z,4
2017-11-26T07:15:37.824Z,3.91
2017-11-26T07:16:37.811Z,3.99
2017-11-26T07:17:37.797Z,4.03
2017-11-26T07:18:37.788Z,4.03
2017-11-26T07:19:38.044Z,4.09
2017-11-26T07:20:38.031Z,4.14
2017-11-26T07:21:37.770Z,4.13
2017-11-26T07:22:38.011Z,4.18
2017-11-26T07:23:37.996Z,4.24
2017-11-26T07:24:38.025Z,4.25
2017-11-26T07:25:37.983Z,4.39
2017-11-26T07:26:37.716Z,4.34
2017-11-26T07:27:37.966Z,4.4
2017-11-26T07:28:37.692Z,4.4
2017-11-26T07:29:37.956Z,4.43
2017-11-26T07:30:37.417Z,4.5
2017-11-26T07:31:37.932Z,4.57
2017-11-26T07:32:37.933Z,4.57
2017-11-26T07:33:37.904Z,4.57
2017-11-26T07:34:37.923Z,4.6
2017-11-26T07:35:37.626Z,4.63
2017-11-26T07:36:37.874Z,4.61
2017-11-26T07:37:37.869Z,4.61
2017-11-26T07:38:37.857Z,4.66
2017-11-26T07:39:37.845Z,4.7
2017-11-26T07:40:37.578Z,4.7
2017-11-26T07:41:37.570Z,4.64
2017-11-26T07:42:37.301Z,4.66
2017-11-26T07:43:37.829Z,4.64
2017-11-26T07:44:37.812Z,4.67
2017-11-26T07:45:37.550Z,4.76
2017-11-26T07:46:37.778Z,4.7
2017-11-26T07:47:37.788Z,4.7
2017-11-26T07:48:37.765Z,4.68
2017-11-26T07:49:37.760Z,4.58
2017-11-26T07:50:37.754Z,4.67
2017-11-26T07:51:37.734Z,4.66
2017-11-26T07:52:37.463Z,4.71
2017-11-26T07:53:37.718Z,4.56
2017-11-26T07:54:37.711Z,4.6
2017-11-26T07:55:37.434Z,4.63
2017-11-26T07:56:37.786Z,4.6
2017-11-26T07:57:37.686Z,4.61
2017-11-26T07:58:37.411Z,4.64
2017-11-26T07:59:37.139Z,4.61
2017-11-26T08:00:37.650Z,4.64
2017-11-26T08:01:37.839Z,4.64
2017-11-26T08:02:37.372Z,4.61
2017-11-26T08:03:37.635Z,4.7
2017-11-26T08:04:37.351Z,4.63
2017-11-26T08:05:37.600Z,4.63
2017-11-26T08:06:37.331Z,4.64
2017-11-26T08:07:37.320Z,4.71
2017-11-26T08:08:37.567Z,4.71
2017-11-26T08:09:37.400Z,4.74
2017-11-26T08:10:37.558Z,4.78
2017-11-26T08:11:37.385Z,4.7
2017-11-26T08:12:37.558Z,4.74
2017-11-26T08:13:37.653Z,4.71
2017-11-26T08:14:37.514Z,4.82
2017-11-26T08:15:37.509Z,4.82
2017-11-26T08:16:37.239Z,4.78
2017-11-26T08:17:36.975Z,4.79
2017-11-26T08:18:37.329Z,4.76
2017-11-26T08:19:37.209Z,4.78
2017-11-26T08:20:37.200Z,4.82
2017-11-26T08:21:37.030Z,4.78
2017-11-26T08:22:37.185Z,4.89
2017-11-26T08:23:37.541Z,4.94
2017-11-26T08:24:37.190Z,4.87
2017-11-26T08:25:37.413Z,4.92
2017-11-26T08:26:37.416Z,4.78
2017-11-26T08:27:37.232Z,4.78
2017-11-26T08:28:37.383Z,4.82
2017-11-26T08:29:37.375Z,4.83
2017-11-26T08:30:37.364Z,4.87
2017-11-26T08:31:37.362Z,4.87
2017-11-26T08:32:37.088Z,4.78
2017-11-26T08:33:37.431Z,4.82
2017-11-26T08:34:37.438Z,4.84
2017-11-26T08:35:37.322Z,4.86
2017-11-26T08:36:37.311Z,4.78
2017-11-26T08:37:37.298Z,4.86
2017-11-26T08:38:37.400Z,4.79
2017-11-26T08:39:37.019Z,4.78
2017-11-26T08:40:37.015Z,4.74
2017-11-26T08:41:37.257Z,4.75
2017-11-26T08:42:37.250Z,4.74
2017-11-26T08:43:37.241Z,4.83
2017-11-26T08:44:37.228Z,4.92
2017-11-26T08:45:37.332Z,4.87
2017-11-26T08:46:36.967Z,4.94
2017-11-26T08:47:37.198Z,5.02
2017-11-26T08:48:36.934Z,4.98
2017-11-26T08:49:37.201Z,4.95
2017-11-26T08:50:37.174Z,5.01
2017-11-26T08:51:36.908Z,4.92
2017-11-26T08:52:36.895Z,4.94
2017-11-26T08:53:36.630Z,5
2017-11-26T08:54:36.875Z,4.98
2017-11-26T08:55:37.227Z,4.95
2017-11-26T08:56:36.855Z,5
2017-11-26T08:57:36.854Z,5.07
2017-11-26T08:58:36.838Z,5.07
2017-11-26T08:59:37.097Z,5.04
2017-11-26T09:00:36.827Z,5.08
2017-11-26T09:01:37.070Z,5.12
2017-11-26T09:02:37.060Z,5.08
2017-11-26T09:03:37.049Z,5.18
2017-11-26T09:04:36.783Z,5.2
2017-11-26T09:05:37.038Z,5.1
2017-11-26T09:06:36.504Z,5.18
2017-11-26T09:07:36.774Z,5.19
2017-11-26T09:08:36.744Z,5.12
2017-11-26T09:09:36.731Z,5.15
2017-11-26T09:10:36.737Z,5.1
2017-11-26T09:11:36.712Z,5.16
2017-11-26T09:12:36.967Z,5.2
2017-11-26T09:13:36.693Z,5.23
2017-11-26T09:14:36.689Z,5.31
2017-11-26T09:15:37.039Z,5.23
2017-11-26T09:16:36.931Z,5.33
2017-11-26T09:17:36.660Z,5.36
2017-11-26T09:18:36.908Z,5.44
2017-11-26T09:19:36.902Z,5.4
2017-11-26T09:20:36.893Z,5.37
2017-11-26T09:21:36.885Z,5.49
2017-11-26T09:22:36.870Z,5.54
2017-11-26T09:23:36.862Z,5.49
2017-11-26T09:24:36.848Z,5.54
2017-11-26T09:25:36.591Z,5.56
2017-11-26T09:26:36.852Z,5.52
2017-11-26T09:27:36.567Z,5.56
2017-11-26T09:28:36.813Z,5.58
2017-11-26T09:29:36.813Z,5.54
2017-11-26T09:30:36.800Z,5.56
2017-11-26T09:31:36.627Z,5.56
2017-11-26T09:32:36.519Z,5.37
2017-11-26T09:33:36.509Z,5.4
2017-11-26T09:34:36.761Z,5.36
2017-11-26T09:35:36.491Z,5.41
2017-11-26T09:36:36.481Z,5.34
2017-11-26T09:37:36.212Z,5.41
2017-11-26T09:38:36.722Z,5.37
2017-11-26T09:39:36.453Z,5.36
2017-11-26T09:40:36.446Z,5.31
2017-11-26T09:41:36.434Z,5.28
2017-11-26T09:42:36.790Z,5.2
2017-11-26T09:43:36.710Z,5.28
2017-11-26T09:44:36.149Z,5.25
2017-11-26T09:45:36.138Z,5.36
2017-11-26T09:46:36.647Z,5.41
2017-11-26T09:47:36.220Z,5.37
2017-11-26T09:48:36.112Z,5.34
2017-11-26T09:49:36.366Z,5.38
2017-11-26T09:50:36.354Z,5.37
2017-11-26T09:51:36.363Z,5.28
2017-11-26T09:52:36.432Z,5.22
2017-11-26T09:53:36.324Z,5.16
2017-11-26T09:54:36.573Z,5.16
2017-11-26T09:55:36.307Z,5.1
2017-11-26T09:56:36.294Z,5.12
2017-11-26T09:57:36.295Z,5.15
2017-11-26T09:58:36.535Z,5.1
2017-11-26T09:59:36.267Z,5.22
2017-11-26T10:00:36.515Z,5.26
2017-11-26T10:01:36.506Z,5.29
2017-11-26T10:02:36.242Z,5.28
2017-11-26T10:03:36.231Z,5.34
2017-11-26T10:04:36.219Z,5.34
2017-11-26T10:05:35.955Z,5.41
2017-11-26T10:06:36.206Z,5.41
2017-11-26T10:07:36.460Z,5.43
2017-11-26T10:08:36.458Z,5.34
2017-11-26T10:09:36.178Z,5.33
2017-11-26T10:10:36.465Z,5.33
2017-11-26T10:11:36.417Z,5.26
2017-11-26T10:12:36.405Z,5.22
2017-11-26T10:13:36.395Z,5.19
2017-11-26T10:14:36.388Z,5.2
2017-11-26T10:15:36.217Z,5.2
2017-11-26T10:16:36.374Z,5.2
2017-11-26T10:17:35.841Z,5.19
2017-11-26T10:18:36.087Z,5.19
2017-11-26T10:19:36.093Z,5.22
2017-11-26T10:20:36.070Z,5.22
2017-11-26T10:21:36.324Z,5.18
2017-11-26T10:22:36.418Z,5.31
2017-11-26T10:23:36.301Z,5.28
2017-11-26T10:24:36.304Z,5.31
2017-11-26T10:25:35.766Z,5.34
2017-11-26T10:26:36.283Z,5.28
2017-11-26T10:27:36.294Z,5.28
2017-11-26T10:28:36.002Z,5.31
2017-11-26T10:29:35.993Z,5.29
2017-11-26T10:30:36.239Z,5.33
2017-11-26T10:31:36.074Z,5.37
2017-11-26T10:32:35.958Z,5.44
2017-11-26T10:33:36.313Z,5.52
2017-11-26T10:34:35.943Z,5.58
2017-11-26T10:35:35.959Z,5.47
2017-11-26T10:36:35.924Z,5.54
2017-11-26T10:37:36.170Z,5.44
2017-11-26T10:38:36.168Z,5.54
2017-11-26T10:39:36.252Z,5.36
2017-11-26T10:40:36.141Z,5.4
2017-11-26T10:41:35.896Z,5.33
2017-11-26T10:42:36.130Z,5.36
2017-11-26T10:43:35.862Z,5.38
2017-11-26T10:44:36.105Z,5.34
2017-11-26T10:45:35.579Z,5.23
2017-11-26T10:46:36.085Z,5.19
2017-11-26T10:47:36.079Z,5.13
2017-11-26T10:48:36.177Z,5.15
2017-11-26T10:49:35.806Z,5.16
2017-11-26T10:50:35.795Z,5.12
2017-11-26T10:51:36.044Z,5.16
2017-11-26T10:52:35.773Z,5.2
2017-11-26T10:53:36.029Z,5.25
2017-11-26T10:54:36.021Z,5.26
2017-11-26T10:55:36.002Z,5.22
2017-11-26T10:56:35.734Z,5.18
2017-11-26T10:57:35.467Z,5.19
2017-11-26T10:58:35.980Z,5.12
2017-11-26T10:59:35.970Z,5.13
2017-11-26T11:00:35.974Z,5.1
2017-11-26T11:01:35.946Z,4.98
2017-11-26T11:02:35.679Z,5.02
2017-11-26T11:03:35.667Z,5.05
2017-11-26T11:04:35.920Z,5
2017-11-26T11:05:35.908Z,5.13
2017-11-26T11:06:35.906Z,5.18
2017-11-26T11:07:35.730Z,5.15
2017-11-26T11:08:35.645Z,5.29
2017-11-26T11:09:35.879Z,5.25
2017-11-26T11:10:35.863Z,5.28
2017-11-26T11:11:35.862Z,5.29
2017-11-26T11:12:35.851Z,5.33
2017-11-26T11:13:35.842Z,5.36
2017-11-26T11:14:35.564Z,5.38
2017-11-26T11:15:35.826Z,5.37
2017-11-26T11:16:35.802Z,5.38
2017-11-26T11:17:35.893Z,5.38
2017-11-26T11:18:35.528Z,5.4
2017-11-26T11:19:35.532Z,5.51
2017-11-26T11:20:35.767Z,5.51
2017-11-26T11:21:35.504Z,5.62
2017-11-26T11:22:35.489Z,5.67
2017-11-26T11:23:35.736Z,5.69
2017-11-26T11:24:35.733Z,5.76
2017-11-26T11:25:35.719Z,5.87
2017-11-26T11:26:35.190Z,5.95
2017-11-26T11:27:35.712Z,5.95
2017-11-26T11:28:35.438Z,5.91
2017-11-26T11:29:35.690Z,5.84
2017-11-26T11:30:35.671Z,5.87
2017-11-26T11:31:35.414Z,5.97
2017-11-26T11:32:35.393Z,5.84
2017-11-26T11:33:35.646Z,5.94
2017-11-26T11:34:35.375Z,5.92
2017-11-26T11:35:35.367Z,5.9
2017-11-26T11:36:35.353Z,5.95
2017-11-26T11:37:35.346Z,5.84
2017-11-26T11:38:35.607Z,5.76
2017-11-26T11:39:35.581Z,5.84
2017-11-26T11:40:35.059Z,5.87
2017-11-26T11:41:35.669Z,5.83
2017-11-26T11:42:35.557Z,5.8
2017-11-26T11:43:35.679Z,5.91
2017-11-26T11:44:35.535Z,5.92
2017-11-26T11:45:35.272Z,5.97
2017-11-26T11:46:35.525Z,6.07
2017-11-26T11:47:35.351Z,5.99
2017-11-26T11:48:35.245Z,6.07
2017-11-26T11:49:35.487Z,6.01
2017-11-26T11:50:35.224Z,5.88
2017-11-26T11:51:35.212Z,5.98
2017-11-26T11:52:35.211Z,6.01
2017-11-26T11:53:35.214Z,5.97
2017-11-26T11:54:35.542Z,5.95
2017-11-26T11:55:35.449Z,5.94
2017-11-26T11:56:35.163Z,5.91
2017-11-26T11:57:35.154Z,5.92
2017-11-26T11:58:35.419Z,5.95
2017-11-26T11:59:35.138Z,5.87
2017-11-26T12:00:35.128Z,5.88
2017-11-26T12:01:35.374Z,5.79
2017-11-26T12:02:35.109Z,5.79
2017-11-26T12:03:35.464Z,5.73
2017-11-26T12:04:35.349Z,5.58
2017-11-26T12:05:35.336Z,5.64
2017-11-26T12:06:35.323Z,5.59
2017-11-26T12:07:35.057Z,5.59
2017-11-26T12:08:35.148Z,5.49
2017-11-26T12:09:35.312Z,5.54
2017-11-26T12:10:35.289Z,5.55
2017-11-26T12:11:35.276Z,5.52
2017-11-26T12:12:35.011Z,5.4
2017-11-26T12:13:35.001Z,5.38
2017-11-26T12:14:35.261Z,5.41
2017-11-26T12:15:35.338Z,5.43
2017-11-26T12:16:34.968Z,5.44
2017-11-26T12:17:34.965Z,5.46
2017-11-26T12:18:35.050Z,5.44
2017-11-26T12:19:34.681Z,5.38
2017-11-26T12:20:35.187Z,5.38
2017-11-26T12:21:34.923Z,5.46
2017-11-26T12:22:34.911Z,5.37
2017-11-26T12:23:34.901Z,5.43
2017-11-26T12:24:35.148Z,5.29
2017-11-26T12:25:34.888Z,5.4
2017-11-26T12:26:34.614Z,5.52
2017-11-26T12:27:35.130Z,5.46
2017-11-26T12:28:34.850Z,5.51
2017-11-26T12:29:35.100Z,5.59
2017-11-26T12:30:35.101Z,5.52
2017-11-26T12:31:35.083Z,5.51
2017-11-26T12:32:34.810Z,5.51
2017-11-26T12:33:35.063Z,5.51
2017-11-26T12:34:34.803Z,5.41
2017-11-26T12:35:35.152Z,5.37
2017-11-26T12:36:35.029Z,5.46
2017-11-26T12:37:35.035Z,5.52
2017-11-26T12:38:34.752Z,5.49
2017-11-26T12:39:35.035Z,5.44
2017-11-26T12:40:34.993Z,5.56
2017-11-26T12:41:34.723Z,5.47
2017-11-26T12:42:34.713Z,5.49
2017-11-26T12:43:34.448Z,5.4
2017-11-26T12:44:34.953Z,5.43
2017-11-26T12:45:34.975Z,5.43
2017-11-26T12:46:34.678Z,5.4
2017-11-26T12:47:34.406Z,5.55
2017-11-26T12:48:34.918Z,5.49
2017-11-26T12:49:34.905Z,5.58
2017-11-26T12:50:34.896Z,5.58
2017-11-26T12:51:34.622Z,5.41
2017-11-26T12:52:34.618Z,5.47
2017-11-26T12:53:34.870Z,5.36
2017-11-26T12:54:34.860Z,5.38
2017-11-26T12:55:34.850Z,5.36
2017-11-26T12:56:34.836Z,5.38
2017-11-26T12:57:34.829Z,5.44
2017-11-26T12:58:34.816Z,5.41
2017-11-26T12:59:34.909Z,5.46
2017-11-26T13:00:34.836Z,5.34
2017-11-26T13:01:34.530Z,5.49
2017-11-26T13:02:34.521Z,5.44
2017-11-26T13:03:34.767Z,5.43
2017-11-26T13:04:34.757Z,5.34
2017-11-26T13:05:34.749Z,5.31
2017-11-26T13:06:34.480Z,5.31
2017-11-26T13:07:34.468Z,5.26
2017-11-26T13:08:34.724Z,5.16
2017-11-26T13:09:34.817Z,5.23
2017-11-26T13:10:34.443Z,5.2
2017-11-26T13:11:34.430Z,5.13
2017-11-26T13:12:34.521Z,5.05
2017-11-26T13:13:34.414Z,5
2017-11-26T13:14:34.401Z,5.1
2017-11-26T13:15:34.651Z,5.08
2017-11-26T13:16:34.639Z,5.07
2017-11-26T13:17:34.639Z,5.15
2017-11-26T13:18:34.101Z,5.07
2017-11-26T13:19:34.621Z,5.07
2017-11-26T13:20:34.606Z,5.05
2017-11-26T13:21:34.334Z,5.12
2017-11-26T13:22:34.339Z,5.1